Louisville, Nebraska
Current Conditions -  °F | °C
As of 12:35 AM on Sunday 21 Dec 2014 (Local Time) from KPMV Reporting Station
Haze Haze  
Wind Chill: -2°   Ceiling: 200
Heat Index:   Visibility: 1.7mi
Dew Point:   Wind: 7mph
Humidity: 96%   Direction: 160°SSE
Pressure: 30.01"   Gusts: NA
Location:  41°N, 96.16°W
Report Text: KPMV 210635Z AUTO 16006KT 1 3/4SM BR BKN002 OVC029 01/00 A3001 RMK AO2 T00100004
Loading
Personal Weather Stations






























Interactive Weather Map New forecast layout! Learn more

10-Day Weather Forecast

Advertisements
Track Severe Weather on mobile